Southport, Connecticut
Current Conditions -  °F | °C
As of 10:52 AM on Friday 28 Nov 2014 (Local Time) from KBDR Reporting Station
Clear Clear  
Wind Chill: 28°   Ceiling: Unl
Heat Index: 37°   Visibility: 10mi
Dew Point: 21°   Wind: 14mph
Humidity: 52%   Direction: 310°NW
Pressure: 30.13"   Gusts: NA
Location:  41.14°N, 73.28°W
Report Text: KBDR 281552Z 31012KT 10SM CLR 03/M06 A3013 RMK AO2 SLP203 T00281061
Loading
Personal Weather Stations






























Interactive Weather Map New forecast layout! Learn more

10-Day Weather Forecast

Advertisements
Track Severe Weather on mobile